sensor_id;sensor_type;location;lat;lon;timestamp;P1;durP1;ratioP1;P2;durP2;ratioP2
15234;SDS011;7720;51.926;4.488;2023-07-28T00:02:24;12.52;;;5.53;;
15234;SDS011;7720;51.926;4.488;2023-07-28T00:07:28;12.32;;;5.88;;
15234;SDS011;7720;51.926;4.488;2023-07-28T00:12:33;11.02;;;5.93;;
15234;SDS011;7720;51.926;4.488;2023-07-28T00:17:37;13.65;;;5.85;;
15234;SDS011;7720;51.926;4.488;2023-07-28T00:22:40;13.82;;;6.57;;
15234;SDS011;7720;51.926;4.488;2023-07-28T00:27:45;11.65;;;6.68;;
15234;SDS011;7720;51.926;4.488;2023-07-28T00:32:49;11.43;;;6.40;;
15234;SDS011;7720;51.926;4.488;2023-07-28T00:37:52;12.63;;;6.15;;
15234;SDS011;7720;51.926;4.488;2023-07-28T00:42:57;13.85;;;7.45;;
15234;SDS011;7720;51.926;4.488;2023-07-28T00:48:01;11.73;;;6.40;;
15234;SDS011;7720;51.926;4.488;2023-07-28T00:53:05;13.35;;;6.75;;
15234;SDS011;7720;51.926;4.488;2023-07-28T00:58:10;15.55;;;6.53;;
15234;SDS011;7720;51.926;4.488;2023-07-28T01:03:14;14.32;;;6.68;;
15234;SDS011;7720;51.926;4.488;2023-07-28T01:08:19;17.95;;;7.22;;
15234;SDS011;7720;51.926;4.488;2023-07-28T01:13:31;16.05;;;7.35;;
15234;SDS011;7720;51.926;4.488;2023-07-28T01:18:35;17.40;;;7.18;;
15234;SDS011;7720;51.926;4.488;2023-07-28T12:02:06;12.98;;;7.25;;
15234;SDS011;7720;51.926;4.488;2023-07-28T12:07:14;19.90;;;9.73;;
15234;SDS011;7720;51.926;4.488;2023-07-28T12:12:20;15.98;;;9.82;;
15234;SDS011;7720;51.926;4.488;2023-07-28T12:17:27;12.35;;;7.95;;
15234;SDS011;7720;51.926;4.488;2023-07-28T12:22:34;19.85;;;12.20;;
15234;SDS011;7720;51.926;4.488;2023-07-28T12:27:38;13.45;;;10.88;;
15234;SDS011;7720;51.926;4.488;2023-07-28T12:32:43;15.55;;;12.63;;
15234;SDS011;7720;51.926;4.488;2023-07-28T12:37:49;16.50;;;13.50;;
15234;SDS011;7720;51.926;4.488;2023-07-28T12:42:56;16.35;;;11.63;;
15234;SDS011;7720;51.926;4.488;2023-07-28T12:48:07;15.23;;;11.00;;
15234;SDS011;7720;51.926;4.488;2023-07-28T12:53:21;12.77;;;10.80;;
15234;SDS011;7720;51.926;4.488;2023-07-28T12:58:25;12.98;;;10.30;;
15234;SDS011;7720;51.926;4.488;2023-07-28T13:03:32;16.25;;;13.52;;
15234;SDS011;7720;51.926;4.488;2023-07-28T13:08:36;19.13;;;15.77;;
15234;SDS011;7720;51.926;4.488;2023-07-28T13:13:42;19.08;;;15.50;;
15234;SDS011;7720;51.926;4.488;2023-07-28T13:18:47;18.10;;;15.75;;
15234;SDS011;7720;51.926;4.488;2023-07-28T13:23:50;15.18;;;13.57;;
15234;SDS011;7720;51.926;4.488;2023-07-28T13:28:54;14.77;;;12.52;;
15234;SDS011;7720;51.926;4.488;2023-07-28T13:34:01;16.55;;;12.27;;
15234;SDS011;7720;51.926;4.488;2023-07-28T13:39:04;14.52;;;11.15;;
15234;SDS011;7720;51.926;4.488;2023-07-28T13:44:08;11.02;;;9.82;;
15234;SDS011;7720;51.926;4.488;2023-07-28T13:49:17;11.75;;;9.98;;
15234;SDS011;7720;51.926;4.488;2023-07-28T13:54:22;9.80;;;8.80;;
15234;SDS011;7720;51.926;4.488;2023-07-28T13:59:25;9.50;;;8.50;;
15234;SDS011;7720;51.926;4.488;2023-07-28T14:04:30;8.32;;;7.47;;
15234;SDS011;7720;51.926;4.488;2023-07-28T14:09:33;11.02;;;8.88;;
15234;SDS011;7720;51.926;4.488;2023-07-28T14:14:37;11.20;;;9.88;;
15234;SDS011;7720;51.926;4.488;2023-07-28T14:19:42;11.00;;;7.30;;
15234;SDS011;7720;51.926;4.488;2023-07-28T14:24:46;10.02;;;8.32;;
15234;SDS011;7720;51.926;4.488;2023-07-28T14:29:49;9.45;;;7.97;;
15234;SDS011;7720;51.926;4.488;2023-07-28T14:34:54;9.27;;;8.35;;
15234;SDS011;7720;51.926;4.488;2023-07-28T14:39:58;7.50;;;6.80;;
15234;SDS011;7720;51.926;4.488;2023-07-28T14:45:01;8.20;;;6.90;;
15234;SDS011;7720;51.926;4.488;2023-07-28T14:50:07;7.03;;;6.30;;
15234;SDS011;7720;51.926;4.488;2023-07-28T14:55:11;7.03;;;6.32;;
15234;SDS011;7720;51.926;4.488;2023-07-28T15:00:17;7.63;;;6.25;;
15234;SDS011;7720;51.926;4.488;2023-07-28T15:05:21;8.23;;;7.10;;
15234;SDS011;7720;51.926;4.488;2023-07-28T15:10:25;7.45;;;6.75;;
15234;SDS011;7720;51.926;4.488;2023-07-28T15:15:28;8.20;;;6.78;;
15234;SDS011;7720;51.926;4.488;2023-07-28T15:20:33;8.63;;;7.32;;
15234;SDS011;7720;51.926;4.488;2023-07-28T15:25:38;10.30;;;8.95;;
15234;SDS011;7720;51.926;4.488;2023-07-28T15:30:44;25.42;;;16.45;;
15234;SDS011;7720;51.926;4.488;2023-07-28T15:35:52;8.23;;;6.50;;
15234;SDS011;7720;51.926;4.488;2023-07-28T15:40:55;7.00;;;6.00;;
15234;SDS011;7720;51.926;4.488;2023-07-28T15:45:59;9.30;;;6.97;;
15234;SDS011;7720;51.926;4.488;2023-07-28T15:51:07;6.68;;;5.65;;
15234;SDS011;7720;51.926;4.488;2023-07-28T15:56:11;6.95;;;5.68;;
15234;SDS011;7720;51.926;4.488;2023-07-28T16:01:15;9.18;;;6.13;;
15234;SDS011;7720;51.926;4.488;2023-07-28T16:06:19;5.50;;;4.63;;
15234;SDS011;7720;51.926;4.488;2023-07-28T16:11:23;8.35;;;5.10;;
15234;SDS011;7720;51.926;4.488;2023-07-28T16:16:27;5.30;;;4.38;;
15234;SDS011;7720;51.926;4.488;2023-07-28T16:21:31;8.88;;;5.80;;
15234;SDS011;7720;51.926;4.488;2023-07-28T16:26:35;6.70;;;4.93;;
15234;SDS011;7720;51.926;4.488;2023-07-28T16:31:39;6.00;;;4.80;;
15234;SDS011;7720;51.926;4.488;2023-07-28T16:36:44;6.47;;;5.32;;
15234;SDS011;7720;51.926;4.488;2023-07-28T16:41:48;6.20;;;4.30;;
15234;SDS011;7720;51.926;4.488;2023-07-28T16:46:51;7.38;;;4.40;;
15234;SDS011;7720;51.926;4.488;2023-07-28T16:51:56;9.93;;;6.25;;
15234;SDS011;7720;51.926;4.488;2023-07-28T16:57:00;10.85;;;6.05;;
15234;SDS011;7720;51.926;4.488;2023-07-28T17:02:04;44.50;;;31.52;;
15234;SDS011;7720;51.926;4.488;2023-07-28T17:07:09;23.48;;;19.55;;
15234;SDS011;7720;51.926;4.488;2023-07-28T17:12:12;13.45;;;10.43;;
15234;SDS011;7720;51.926;4.488;2023-07-28T17:17:16;18.38;;;13.75;;
15234;SDS011;7720;51.926;4.488;2023-07-28T17:22:20;13.43;;;9.73;;
15234;SDS011;7720;51.926;4.488;2023-07-28T17:27:24;9.57;;;7.55;;
15234;SDS011;7720;51.926;4.488;2023-07-28T17:32:27;19.92;;;15.38;;
15234;SDS011;7720;51.926;4.488;2023-07-28T17:37:32;7.50;;;5.13;;
15234;SDS011;7720;51.926;4.488;2023-07-28T17:42:35;6.78;;;4.95;;
15234;SDS011;7720;51.926;4.488;2023-07-28T17:47:39;17.00;;;11.05;;
15234;SDS011;7720;51.926;4.488;2023-07-28T17:52:44;6.53;;;4.72;;
15234;SDS011;7720;51.926;4.488;2023-07-28T17:57:47;6.50;;;4.43;;
15234;SDS011;7720;51.926;4.488;2023-07-28T18:02:51;9.63;;;6.95;;
15234;SDS011;7720;51.926;4.488;2023-07-28T18:07:56;10.35;;;7.25;;
15234;SDS011;7720;51.926;4.488;2023-07-28T18:12:59;6.18;;;5.07;;
15234;SDS011;7720;51.926;4.488;2023-07-28T18:18:03;9.18;;;4.57;;
15234;SDS011;7720;51.926;4.488;2023-07-28T18:23:10;4.63;;;3.65;;
15234;SDS011;7720;51.926;4.488;2023-07-28T18:28:13;7.72;;;4.15;;
15234;SDS011;7720;51.926;4.488;2023-07-28T18:33:16;5.80;;;3.70;;
15234;SDS011;7720;51.926;4.488;2023-07-28T18:38:22;5.53;;;4.30;;
15234;SDS011;7720;51.926;4.488;2023-07-28T18:43:26;8.15;;;4.60;;
15234;SDS011;7720;51.926;4.488;2023-07-28T18:48:29;6.82;;;4.10;;
15234;SDS011;7720;51.926;4.488;2023-07-28T18:53:34;7.05;;;3.65;;
15234;SDS011;7720;51.926;4.488;2023-07-28T18:58:38;6.13;;;3.30;;
15234;SDS011;7720;51.926;4.488;2023-07-28T19:03:43;6.10;;;3.38;;
15234;SDS011;7720;51.926;4.488;2023-07-28T19:08:48;5.90;;;3.55;;
15234;SDS011;7720;51.926;4.488;2023-07-28T19:13:54;5.68;;;3.17;;
15234;SDS011;7720;51.926;4.488;2023-07-28T19:18:58;4.35;;;3.20;;
15234;SDS011;7720;51.926;4.488;2023-07-28T19:24:03;11.75;;;7.75;;
15234;SDS011;7720;51.926;4.488;2023-07-28T19:29:06;10.82;;;6.25;;
15234;SDS011;7720;51.926;4.488;2023-07-28T19:34:10;8.35;;;6.80;;
15234;SDS011;7720;51.926;4.488;2023-07-28T19:39:15;7.60;;;6.40;;
15234;SDS011;7720;51.926;4.488;2023-07-28T19:44:18;8.48;;;7.00;;
15234;SDS011;7720;51.926;4.488;2023-07-28T19:49:40;6.25;;;3.95;;
15234;SDS011;7720;51.926;4.488;2023-07-28T19:54:48;13.80;;;8.43;;
15234;SDS011;7720;51.926;4.488;2023-07-28T19:59:51;3.80;;;2.20;;
15234;SDS011;7720;51.926;4.488;2023-07-28T20:04:55;8.65;;;4.55;;
15234;SDS011;7720;51.926;4.488;2023-07-28T20:10:01;6.00;;;2.75;;
15234;SDS011;7720;51.926;4.488;2023-07-28T20:15:05;4.93;;;2.40;;
15234;SDS011;7720;51.926;4.488;2023-07-28T20:20:09;3.80;;;2.15;;
15234;SDS011;7720;51.926;4.488;2023-07-28T20:25:15;4.68;;;2.70;;
15234;SDS011;7720;51.926;4.488;2023-07-28T20:30:18;4.00;;;2.72;;
15234;SDS011;7720;51.926;4.488;2023-07-28T20:35:22;4.03;;;2.50;;
15234;SDS011;7720;51.926;4.488;2023-07-28T20:40:26;5.75;;;2.60;;
15234;SDS011;7720;51.926;4.488;2023-07-28T20:45:30;5.63;;;3.15;;
15234;SDS011;7720;51.926;4.488;2023-07-28T20:50:35;6.93;;;3.90;;
15234;SDS011;7720;51.926;4.488;2023-07-28T20:55:52;5.25;;;3.30;;
15234;SDS011;7720;51.926;4.488;2023-07-28T21:00:59;3.85;;;2.70;;
15234;SDS011;7720;51.926;4.488;2023-07-28T21:06:07;5.25;;;2.72;;
15234;SDS011;7720;51.926;4.488;2023-07-28T21:11:22;4.75;;;2.60;;
15234;SDS011;7720;51.926;4.488;2023-07-28T21:16:26;3.60;;;2.20;;
15234;SDS011;7720;51.926;4.488;2023-07-28T21:21:31;3.10;;;1.83;;
15234;SDS011;7720;51.926;4.488;2023-07-28T21:26:37;5.53;;;2.50;;
15234;SDS011;7720;51.926;4.488;2023-07-28T21:31:45;4.65;;;2.00;;
15234;SDS011;7720;51.926;4.488;2023-07-28T21:36:52;1.85;;;1.38;;
15234;SDS011;7720;51.926;4.488;2023-07-28T21:42:05;2.65;;;1.10;;
15234;SDS011;7720;51.926;4.488;2023-07-28T21:47:16;2.13;;;1.50;;
15234;SDS011;7720;51.926;4.488;2023-07-28T21:52:32;3.83;;;1.58;;
15234;SDS011;7720;51.926;4.488;2023-07-28T21:57:44;4.20;;;1.30;;
15234;SDS011;7720;51.926;4.488;2023-07-28T22:03:01;7.30;;;3.42;;
15234;SDS011;7720;51.926;4.488;2023-07-28T22:08:44;2.85;;;1.73;;
15234;SDS011;7720;51.926;4.488;2023-07-28T22:13:56;2.58;;;1.45;;
15234;SDS011;7720;51.926;4.488;2023-07-28T22:19:07;3.67;;;1.50;;
15234;SDS011;7720;51.926;4.488;2023-07-28T22:24:14;2.88;;;1.77;;
15234;SDS011;7720;51.926;4.488;2023-07-28T22:29:47;4.60;;;1.98;;
15234;SDS011;7720;51.926;4.488;2023-07-28T22:34:55;2.85;;;1.50;;
15234;SDS011;7720;51.926;4.488;2023-07-28T22:40:03;5.43;;;1.70;;
15234;SDS011;7720;51.926;4.488;2023-07-28T22:45:13;6.45;;;1.88;;
15234;SDS011;7720;51.926;4.488;2023-07-28T22:50:20;3.33;;;1.77;;
15234;SDS011;7720;51.926;4.488;2023-07-28T22:55:25;4.65;;;2.20;;
15234;SDS011;7720;51.926;4.488;2023-07-28T23:00:30;5.80;;;2.25;;
15234;SDS011;7720;51.926;4.488;2023-07-28T23:05:35;5.93;;;1.98;;
15234;SDS011;7720;51.926;4.488;2023-07-28T23:10:39;5.07;;;2.10;;
15234;SDS011;7720;51.926;4.488;2023-07-28T23:15:45;7.53;;;2.38;;
15234;SDS011;7720;51.926;4.488;2023-07-28T23:20:50;6.28;;;2.25;;
15234;SDS011;7720;51.926;4.488;2023-07-28T23:31:34;6.72;;;2.45;;
15234;SDS011;7720;51.926;4.488;2023-07-28T23:36:46;8.45;;;2.55;;
15234;SDS011;7720;51.926;4.488;2023-07-28T23:41:57;5.93;;;2.10;;
15234;SDS011;7720;51.926;4.488;2023-07-28T23:47:07;4.32;;;2.13;;
15234;SDS011;7720;51.926;4.488;2023-07-28T23:52:15;4.15;;;2.00;;
15234;SDS011;7720;51.926;4.488;2023-07-28T23:57:23;4.70;;;2.03;;
